sensor_id;sensor_type;location;lat;lon;timestamp;pressure;altitude;pressure_sealevel;temperature;humidity
56518;BME280;42419;48.760;2.322;2022-07-23T00:00:51;101069.75;;;24.18;53.01
56518;BME280;42419;48.760;2.322;2022-07-23T00:03:17;101062.63;;;24.17;53.09
56518;BME280;42419;48.760;2.322;2022-07-23T00:05:42;101055.75;;;24.11;53.13
56518;BME280;42419;48.760;2.322;2022-07-23T00:08:08;101055.91;;;24.08;52.75
56518;BME280;42419;48.760;2.322;2022-07-23T00:10:33;101063.75;;;24.13;53.15
56518;BME280;42419;48.760;2.322;2022-07-23T00:12:59;101070.06;;;24.12;53.51
56518;BME280;42419;48.760;2.322;2022-07-23T00:15:25;101066.50;;;24.11;53.25
56518;BME280;42419;48.760;2.322;2022-07-23T00:17:50;101068.31;;;24.11;53.35
56518;BME280;42419;48.760;2.322;2022-07-23T00:20:16;101065.63;;;24.11;53.34
56518;BME280;42419;48.760;2.322;2022-07-23T00:22:52;101071.00;;;24.11;54.04
56518;BME280;42419;48.760;2.322;2022-07-23T00:25:18;101053.47;;;24.04;53.29
56518;BME280;42419;48.760;2.322;2022-07-23T00:27:44;101065.72;;;24.09;53.38
56518;BME280;42419;48.760;2.322;2022-07-23T00:30:10;101069.38;;;24.08;53.69
56518;BME280;42419;48.760;2.322;2022-07-23T00:32:47;101064.06;;;24.07;54.24
56518;BME280;42419;48.760;2.322;2022-07-23T00:35:13;101060.59;;;24.05;53.66
56518;BME280;42419;48.760;2.322;2022-07-23T00:37:38;101056.16;;;24.04;53.48
56518;BME280;42419;48.760;2.322;2022-07-23T00:40:04;101032.41;;;23.95;53.84
56518;BME280;42419;48.760;2.322;2022-07-23T00:42:31;101040.38;;;23.96;53.45
56518;BME280;42419;48.760;2.322;2022-07-23T00:44:57;101049.97;;;24.02;53.75
56518;BME280;42419;48.760;2.322;2022-07-23T00:47:22;101052.59;;;24.03;53.74
56518;BME280;42419;48.760;2.322;2022-07-23T00:49:47;101055.34;;;24.02;53.65
56518;BME280;42419;48.760;2.322;2022-07-23T00:52:13;101048.31;;;23.99;53.97
56518;BME280;42419;48.760;2.322;2022-07-23T00:54:38;101043.22;;;23.93;53.66
56518;BME280;42419;48.760;2.322;2022-07-23T00:57:04;101052.75;;;24.00;53.38
56518;BME280;42419;48.760;2.322;2022-07-23T00:59:29;101052.88;;;23.97;53.97
56518;BME280;42419;48.760;2.322;2022-07-23T01:01:55;101058.25;;;23.97;53.91
56518;BME280;42419;48.760;2.322;2022-07-23T01:04:20;101044.59;;;23.83;53.88
56518;BME280;42419;48.760;2.322;2022-07-23T01:06:45;101077.25;;;23.94;53.51
56518;BME280;42419;48.760;2.322;2022-07-23T01:09:11;101043.91;;;23.80;53.42
56518;BME280;42419;48.760;2.322;2022-07-23T01:11:37;101059.47;;;23.92;54.03
56518;BME280;42419;48.760;2.322;2022-07-23T01:14:10;101040.34;;;23.79;54.51
56518;BME280;42419;48.760;2.322;2022-07-23T01:16:36;101055.16;;;23.88;54.16
56518;BME280;42419;48.760;2.322;2022-07-23T01:19:01;101056.03;;;23.88;54.30
56518;BME280;42419;48.760;2.322;2022-07-23T01:21:27;101053.34;;;23.88;54.03
56518;BME280;42419;48.760;2.322;2022-07-23T01:23:53;101054.31;;;23.87;53.88
56518;BME280;42419;48.760;2.322;2022-07-23T01:26:19;101057.78;;;23.89;54.29
56518;BME280;42419;48.760;2.322;2022-07-23T01:28:44;101062.28;;;23.89;53.86
56518;BME280;42419;48.760;2.322;2022-07-23T01:31:10;101061.41;;;23.88;53.67
56518;BME280;42419;48.760;2.322;2022-07-23T01:33:35;101056.03;;;23.88;54.13
56518;BME280;42419;48.760;2.322;2022-07-23T01:36:01;101050.75;;;23.87;54.17
56518;BME280;42419;48.760;2.322;2022-07-23T01:38:26;101054.31;;;23.87;54.06
56518;BME280;42419;48.760;2.322;2022-07-23T01:40:51;101060.53;;;23.88;53.68
56518;BME280;42419;48.760;2.322;2022-07-23T01:43:17;101034.25;;;23.76;54.08
56518;BME280;42419;48.760;2.322;2022-07-23T01:45:42;101031.56;;;23.76;53.67
56518;BME280;42419;48.760;2.322;2022-07-23T01:48:09;101052.59;;;23.85;54.10
56518;BME280;42419;48.760;2.322;2022-07-23T01:50:34;101049.91;;;23.85;53.75
56518;BME280;42419;48.760;2.322;2022-07-23T01:53:00;101049.91;;;23.85;53.57
56518;BME280;42419;48.760;2.322;2022-07-23T01:55:25;101034.25;;;23.76;53.81
56518;BME280;42419;48.760;2.322;2022-07-23T01:57:51;101035.75;;;23.81;53.78
56518;BME280;42419;48.760;2.322;2022-07-23T02:00:16;101042.94;;;23.81;53.79
56518;BME280;42419;48.760;2.322;2022-07-23T02:02:41;101042.16;;;23.79;54.14
56518;BME280;42419;48.760;2.322;2022-07-23T02:05:07;101025.47;;;23.72;54.00
56518;BME280;42419;48.760;2.322;2022-07-23T02:07:32;101042.16;;;23.79;54.14
56518;BME280;42419;48.760;2.322;2022-07-23T02:09:58;101041.19;;;23.80;54.19
56518;BME280;42419;48.760;2.322;2022-07-23T02:12:23;101042.06;;;23.80;54.03
56518;BME280;42419;48.760;2.322;2022-07-23T02:14:48;101049.28;;;23.80;53.66
56518;BME280;42419;48.760;2.322;2022-07-23T02:17:14;101046.69;;;23.78;54.03
56518;BME280;42419;48.760;2.322;2022-07-23T02:19:39;101049.38;;;23.78;53.67
56518;BME280;42419;48.760;2.322;2022-07-23T02:22:04;100983.63;;;23.31;53.62
56518;BME280;42419;48.760;2.322;2022-07-23T02:24:30;101056.56;;;23.78;53.39
56518;BME280;42419;48.760;2.322;2022-07-23T02:26:55;101057.50;;;23.77;53.96
56518;BME280;42419;48.760;2.322;2022-07-23T02:29:20;101053.94;;;23.76;53.61
56518;BME280;42419;48.760;2.322;2022-07-23T02:31:46;101052.13;;;23.77;53.90
56518;BME280;42419;48.760;2.322;2022-07-23T02:34:11;101054.00;;;23.74;53.74
56518;BME280;42419;48.760;2.322;2022-07-23T02:36:38;101054.16;;;23.71;53.61
56518;BME280;42419;48.760;2.322;2022-07-23T02:39:04;101056.78;;;23.73;53.84
56518;BME280;42419;48.760;2.322;2022-07-23T02:41:29;101062.88;;;23.77;53.53
56518;BME280;42419;48.760;2.322;2022-07-23T02:43:55;101056.63;;;23.76;54.15
56518;BME280;42419;48.760;2.322;2022-07-23T02:46:20;101063.81;;;23.76;53.89
56518;BME280;42419;48.760;2.322;2022-07-23T02:48:45;101065.72;;;23.73;53.92
56518;BME280;42419;48.760;2.322;2022-07-23T02:51:11;101069.19;;;23.76;53.98
56518;BME280;42419;48.760;2.322;2022-07-23T02:53:36;101062.06;;;23.74;53.12
56518;BME280;42419;48.760;2.322;2022-07-23T02:56:01;101068.31;;;23.75;53.53
56518;BME280;42419;48.760;2.322;2022-07-23T02:58:27;101059.63;;;23.70;53.32
56518;BME280;42419;48.760;2.322;2022-07-23T03:00:53;101075.50;;;23.74;53.64
56518;BME280;42419;48.760;2.322;2022-07-23T03:03:18;101061.03;;;23.60;53.21
56518;BME280;42419;48.760;2.322;2022-07-23T03:05:44;101088.25;;;23.71;53.14
56518;BME280;42419;48.760;2.322;2022-07-23T03:08:09;101090.16;;;23.69;53.61
56518;BME280;42419;48.760;2.322;2022-07-23T03:10:35;101091.97;;;23.68;53.78
56518;BME280;42419;48.760;2.322;2022-07-23T03:13:00;101088.41;;;23.68;53.64
56518;BME280;42419;48.760;2.322;2022-07-23T03:15:25;101095.59;;;23.67;53.53
56518;BME280;42419;48.760;2.322;2022-07-23T03:17:51;101088.56;;;23.65;53.72
56518;BME280;42419;48.760;2.322;2022-07-23T03:20:16;101091.16;;;23.66;53.44
56518;BME280;42419;48.760;2.322;2022-07-23T03:22:41;101091.25;;;23.65;53.40
56518;BME280;42419;48.760;2.322;2022-07-23T03:25:08;101085.00;;;23.64;53.75
56518;BME280;42419;48.760;2.322;2022-07-23T03:27:33;101090.38;;;23.64;53.67
56518;BME280;42419;48.760;2.322;2022-07-23T03:29:59;101078.16;;;23.57;53.64
56518;BME280;42419;48.760;2.322;2022-07-23T03:32:25;101093.06;;;23.64;53.41
56518;BME280;42419;48.760;2.322;2022-07-23T03:34:51;101084.25;;;23.61;53.69
56518;BME280;42419;48.760;2.322;2022-07-23T03:37:17;101092.25;;;23.62;53.84
56518;BME280;42419;48.760;2.322;2022-07-23T03:39:42;101093.13;;;23.63;53.46
56518;BME280;42419;48.760;2.322;2022-07-23T03:42:08;101071.34;;;23.50;53.59
56518;BME280;42419;48.760;2.322;2022-07-23T03:44:34;101092.25;;;23.62;53.44
56518;BME280;42419;48.760;2.322;2022-07-23T03:46:59;101095.88;;;23.61;53.69
56518;BME280;42419;48.760;2.322;2022-07-23T03:49:25;101094.94;;;23.62;53.49
56518;BME280;42419;48.760;2.322;2022-07-23T03:51:50;101102.22;;;23.60;53.69
56518;BME280;42419;48.760;2.322;2022-07-23T03:54:16;101101.34;;;23.60;53.82
56518;BME280;42419;48.760;2.322;2022-07-23T03:56:41;101103.06;;;23.61;53.94
56518;BME280;42419;48.760;2.322;2022-07-23T03:59:08;101108.44;;;23.61;53.78
56518;BME280;42419;48.760;2.322;2022-07-23T04:01:33;101109.41;;;23.60;53.85
56518;BME280;42419;48.760;2.322;2022-07-23T04:03:58;101106.63;;;23.61;53.83
56518;BME280;42419;48.760;2.322;2022-07-23T04:06:24;101107.50;;;23.62;54.10
56518;BME280;42419;48.760;2.322;2022-07-23T04:08:49;101112.88;;;23.62;54.24
56518;BME280;42419;48.760;2.322;2022-07-23T04:11:14;101106.63;;;23.61;54.16
56518;BME280;42419;48.760;2.322;2022-07-23T04:13:40;101110.19;;;23.62;54.06
56518;BME280;42419;48.760;2.322;2022-07-23T04:16:05;101105.69;;;23.62;54.22
56518;BME280;42419;48.760;2.322;2022-07-23T04:18:31;101114.63;;;23.63;54.12
56518;BME280;42419;48.760;2.322;2022-07-23T04:20:57;101119.09;;;23.64;53.93
56518;BME280;42419;48.760;2.322;2022-07-23T04:23:22;101115.50;;;23.63;53.87
56518;BME280;42419;48.760;2.322;2022-07-23T04:25:47;101117.31;;;23.63;54.21
56518;BME280;42419;48.760;2.322;2022-07-23T04:28:13;101120.00;;;23.63;54.20
56518;BME280;42419;48.760;2.322;2022-07-23T04:30:38;101116.38;;;23.64;54.22
56518;BME280;42419;48.760;2.322;2022-07-23T04:33:03;101098.09;;;23.53;53.84
56518;BME280;42419;48.760;2.322;2022-07-23T04:35:35;101115.56;;;23.62;54.44
56518;BME280;42419;48.760;2.322;2022-07-23T04:38:01;101116.38;;;23.64;53.99
56518;BME280;42419;48.760;2.322;2022-07-23T04:40:26;101103.28;;;23.56;53.76
56518;BME280;42419;48.760;2.322;2022-07-23T04:42:52;101117.16;;;23.66;54.19
56518;BME280;42419;48.760;2.322;2022-07-23T04:45:17;101118.13;;;23.65;53.85
56518;BME280;42419;48.760;2.322;2022-07-23T04:47:43;101110.06;;;23.65;53.71
56518;BME280;42419;48.760;2.322;2022-07-23T04:50:08;101127.03;;;23.65;54.14
56518;BME280;42419;48.760;2.322;2022-07-23T04:52:34;101122.53;;;23.66;54.13
56518;BME280;42419;48.760;2.322;2022-07-23T04:54:59;101099.13;;;23.51;53.79
56518;BME280;42419;48.760;2.322;2022-07-23T04:57:24;101121.06;;;23.60;53.93
56518;BME280;42419;48.760;2.322;2022-07-23T04:59:50;101123.53;;;23.65;53.68
56518;BME280;42419;48.760;2.322;2022-07-23T05:02:15;101127.16;;;23.64;53.63
56518;BME280;42419;48.760;2.322;2022-07-23T05:04:40;101128.97;;;23.63;53.35
56518;BME280;42419;48.760;2.322;2022-07-23T05:07:06;101129.84;;;23.64;53.63
56518;BME280;42419;48.760;2.322;2022-07-23T05:09:31;101129.84;;;23.64;53.79
56518;BME280;42419;48.760;2.322;2022-07-23T05:11:57;101133.41;;;23.64;53.54
56518;BME280;42419;48.760;2.322;2022-07-23T05:14:22;101074.22;;;23.28;53.11
56518;BME280;42419;48.760;2.322;2022-07-23T05:16:47;101129.84;;;23.64;53.48
56518;BME280;42419;48.760;2.322;2022-07-23T05:19:13;101123.53;;;23.65;53.19
56518;BME280;42419;48.760;2.322;2022-07-23T05:21:38;101125.31;;;23.64;52.96
56518;BME280;42419;48.760;2.322;2022-07-23T05:24:04;101128.91;;;23.65;53.19
56518;BME280;42419;48.760;2.322;2022-07-23T05:26:30;101125.31;;;23.64;52.97
56518;BME280;42419;48.760;2.322;2022-07-23T05:28:55;101125.31;;;23.64;53.16
56518;BME280;42419;48.760;2.322;2022-07-23T05:31:20;101099.19;;;23.49;53.00
56518;BME280;42419;48.760;2.322;2022-07-23T05:33:46;101098.13;;;23.52;52.98
56518;BME280;42419;48.760;2.322;2022-07-23T05:36:11;101091.13;;;23.49;53.01
56518;BME280;42419;48.760;2.322;2022-07-23T05:38:36;101126.81;;;23.70;52.71
56518;BME280;42419;48.760;2.322;2022-07-23T05:41:02;101124.06;;;23.71;52.48
56518;BME280;42419;48.760;2.322;2022-07-23T05:43:28;101109.25;;;23.63;52.73
56518;BME280;42419;48.760;2.322;2022-07-23T05:45:54;101120.97;;;23.62;52.61
56518;BME280;42419;48.760;2.322;2022-07-23T05:48:19;101112.34;;;23.55;52.66
56518;BME280;42419;48.760;2.322;2022-07-23T05:50:46;101142.03;;;23.71;52.74
56518;BME280;42419;48.760;2.322;2022-07-23T05:53:14;101149.09;;;23.73;52.56
56518;BME280;42419;48.760;2.322;2022-07-23T05:55:39;101152.56;;;23.76;52.22
56518;BME280;42419;48.760;2.322;2022-07-23T05:58:05;101148.22;;;23.73;52.48
56518;BME280;42419;48.760;2.322;2022-07-23T06:00:30;101151.63;;;23.77;52.84
56518;BME280;42419;48.760;2.322;2022-07-23T06:02:56;101122.06;;;23.58;52.48
56518;BME280;42419;48.760;2.322;2022-07-23T06:05:21;101158.66;;;23.79;52.30
56518;BME280;42419;48.760;2.322;2022-07-23T06:07:47;101156.84;;;23.80;52.31
56518;BME280;42419;48.760;2.322;2022-07-23T06:10:12;101149.22;;;23.70;52.44
56518;BME280;42419;48.760;2.322;2022-07-23T06:12:38;101170.22;;;23.81;52.22
56518;BME280;42419;48.760;2.322;2022-07-23T06:15:03;101162.09;;;23.83;52.84
56518;BME280;42419;48.760;2.322;2022-07-23T06:17:29;101170.06;;;23.84;52.23
56518;BME280;42419;48.760;2.322;2022-07-23T06:19:55;101098.59;;;23.43;52.70
56518;BME280;42419;48.760;2.322;2022-07-23T06:22:21;101170.03;;;23.86;52.52
56518;BME280;42419;48.760;2.322;2022-07-23T06:24:47;101172.66;;;23.87;52.50
56518;BME280;42419;48.760;2.322;2022-07-23T06:27:12;101138.38;;;23.72;52.10
56518;BME280;42419;48.760;2.322;2022-07-23T06:29:37;101169.16;;;23.85;52.13
56518;BME280;42419;48.760;2.322;2022-07-23T06:32:03;101170.06;;;23.84;52.21
56518;BME280;42419;48.760;2.322;2022-07-23T06:34:28;101181.75;;;23.83;52.27
56518;BME280;42419;48.760;2.322;2022-07-23T06:36:54;101188.00;;;23.84;52.50
56518;BME280;42419;48.760;2.322;2022-07-23T06:39:19;101094.03;;;23.26;52.59
56518;BME280;42419;48.760;2.322;2022-07-23T06:41:44;101194.41;;;23.81;52.23
56518;BME280;42419;48.760;2.322;2022-07-23T06:44:10;101170.66;;;23.72;52.44
56518;BME280;42419;48.760;2.322;2022-07-23T06:46:36;101174.28;;;23.71;52.36
56518;BME280;42419;48.760;2.322;2022-07-23T06:49:02;101191.72;;;23.81;52.38
56518;BME280;42419;48.760;2.322;2022-07-23T06:51:29;101131.44;;;23.49;52.24
56518;BME280;42419;48.760;2.322;2022-07-23T06:53:54;101186.28;;;23.83;52.77
56518;BME280;42419;48.760;2.322;2022-07-23T06:56:20;101166.22;;;23.71;52.89
56518;BME280;42419;48.760;2.322;2022-07-23T06:58:45;101191.66;;;23.83;52.60
56518;BME280;42419;48.760;2.322;2022-07-23T07:01:10;101166.44;;;23.66;52.34
56518;BME280;42419;48.760;2.322;2022-07-23T07:03:36;101185.41;;;23.82;52.19
56518;BME280;42419;48.760;2.322;2022-07-23T07:06:01;101191.66;;;23.83;52.38
56518;BME280;42419;48.760;2.322;2022-07-23T07:08:27;101180.16;;;23.79;52.59
56518;BME280;42419;48.760;2.322;2022-07-23T07:10:52;101201.44;;;23.85;52.76
56518;BME280;42419;48.760;2.322;2022-07-23T07:13:18;101201.38;;;23.87;52.65
56518;BME280;42419;48.760;2.322;2022-07-23T07:15:43;101195.00;;;23.88;52.66
56518;BME280;42419;48.760;2.322;2022-07-23T07:18:08;101195.88;;;23.88;52.25
56518;BME280;42419;48.760;2.322;2022-07-23T07:20:34;101215.53;;;23.90;52.21
56518;BME280;42419;48.760;2.322;2022-07-23T07:22:59;101212.78;;;23.92;52.54
56518;BME280;42419;48.760;2.322;2022-07-23T07:25:25;101218.94;;;23.94;52.38
56518;BME280;42419;48.760;2.322;2022-07-23T07:27:50;101230.41;;;23.97;52.37
56518;BME280;42419;48.760;2.322;2022-07-23T07:30:15;101227.72;;;23.97;52.07
56518;BME280;42419;48.760;2.322;2022-07-23T07:32:41;101233.03;;;23.99;52.06
56518;BME280;42419;48.760;2.322;2022-07-23T07:35:08;101230.34;;;23.99;52.27
56518;BME280;42419;48.760;2.322;2022-07-23T07:37:34;101230.34;;;23.99;52.02
56518;BME280;42419;48.760;2.322;2022-07-23T07:39:59;101240.16;;;24.00;52.36
56518;BME280;42419;48.760;2.322;2022-07-23T07:42:29;101228.53;;;23.99;52.41
56518;BME280;42419;48.760;2.322;2022-07-23T07:44:54;101236.59;;;23.99;52.49
56518;BME280;42419;48.760;2.322;2022-07-23T07:47:20;101236.81;;;23.95;52.37
56518;BME280;42419;48.760;2.322;2022-07-23T07:49:45;101242.03;;;23.98;52.02
56518;BME280;42419;48.760;2.322;2022-07-23T07:52:10;101235.72;;;23.99;52.20
56518;BME280;42419;48.760;2.322;2022-07-23T07:54:36;101222.03;;;23.85;51.90
56518;BME280;42419;48.760;2.322;2022-07-23T07:57:02;101227.00;;;23.94;51.86
56518;BME280;42419;48.760;2.322;2022-07-23T07:59:27;101238.41;;;23.99;52.27
56518;BME280;42419;48.760;2.322;2022-07-23T08:01:53;101239.34;;;23.98;52.26
56518;BME280;42419;48.760;2.322;2022-07-23T08:04:18;101243.84;;;23.97;51.94
56518;BME280;42419;48.760;2.322;2022-07-23T08:06:46;101241.28;;;23.96;51.87
56518;BME280;42419;48.760;2.322;2022-07-23T08:09:11;101251.00;;;23.98;51.94
56518;BME280;42419;48.760;2.322;2022-07-23T08:11:36;101248.25;;;24.00;51.94
56518;BME280;42419;48.760;2.322;2022-07-23T08:14:02;101255.34;;;24.01;52.05
56518;BME280;42419;48.760;2.322;2022-07-23T08:16:27;101256.16;;;24.03;52.34
56518;BME280;42419;48.760;2.322;2022-07-23T08:18:53;101254.41;;;24.02;52.01
56518;BME280;42419;48.760;2.322;2022-07-23T08:21:18;101258.69;;;24.06;52.10
56518;BME280;42419;48.760;2.322;2022-07-23T08:23:44;101240.22;;;23.98;52.57
56518;BME280;42419;48.760;2.322;2022-07-23T08:26:09;101264.00;;;24.07;52.41
56518;BME280;42419;48.760;2.322;2022-07-23T08:28:35;101242.97;;;23.97;52.08
56518;BME280;42419;48.760;2.322;2022-07-23T08:31:00;101267.50;;;24.09;51.68
56518;BME280;42419;48.760;2.322;2022-07-23T08:33:26;101271.03;;;24.10;52.09
56518;BME280;42419;48.760;2.322;2022-07-23T08:35:52;101272.78;;;24.11;52.43
56518;BME280;42419;48.760;2.322;2022-07-23T08:38:21;101266.63;;;24.09;52.25
56518;BME280;42419;48.760;2.322;2022-07-23T08:40:49;101264.72;;;24.11;52.25
56518;BME280;42419;48.760;2.322;2022-07-23T08:43:18;101276.13;;;24.16;52.00
56518;BME280;42419;48.760;2.322;2022-07-23T08:45:50;101260.44;;;24.07;51.88
56518;BME280;42419;48.760;2.322;2022-07-23T08:48:17;101257.81;;;24.05;51.97
56518;BME280;42419;48.760;2.322;2022-07-23T08:50:46;101278.66;;;24.19;52.04
56518;BME280;42419;48.760;2.322;2022-07-23T08:53:12;101282.13;;;24.23;52.19
56518;BME280;42419;48.760;2.322;2022-07-23T08:55:38;101284.59;;;24.27;51.80
56518;BME280;42419;48.760;2.322;2022-07-23T08:58:04;101288.06;;;24.29;52.20
56518;BME280;42419;48.760;2.322;2022-07-23T09:00:29;101285.31;;;24.31;52.05
56518;BME280;42419;48.760;2.322;2022-07-23T09:02:55;101281.66;;;24.32;52.26
56518;BME280;42419;48.760;2.322;2022-07-23T09:05:20;101286.81;;;24.36;51.96
56518;BME280;42419;48.760;2.322;2022-07-23T09:10:46;101288.31;;;24.42;52.01
56518;BME280;42419;48.760;2.322;2022-07-23T09:13:35;101287.31;;;24.44;52.71
56518;BME280;42419;48.760;2.322;2022-07-23T09:16:09;101294.41;;;24.45;52.55
56518;BME280;42419;48.760;2.322;2022-07-23T09:18:39;101284.75;;;24.41;52.40
56518;BME280;42419;48.760;2.322;2022-07-23T09:21:13;101274.09;;;24.40;52.38
56518;BME280;42419;48.760;2.322;2022-07-23T09:23:43;101292.41;;;24.50;52.48
56518;BME280;42419;48.760;2.322;2022-07-23T09:26:20;101278.28;;;24.45;52.23
56518;BME280;42419;48.760;2.322;2022-07-23T09:31:50;101292.34;;;24.52;52.16
56518;BME280;42419;48.760;2.322;2022-07-23T09:34:27;101258.94;;;24.37;52.46
56518;BME280;42419;48.760;2.322;2022-07-23T09:36:55;101272.88;;;24.45;52.14
56518;BME280;42419;48.760;2.322;2022-07-23T09:39:32;101268.53;;;24.43;52.59
56518;BME280;42419;48.760;2.322;2022-07-23T09:42:13;101286.91;;;24.53;52.33
56518;BME280;42419;48.760;2.322;2022-07-23T09:44:43;101288.78;;;24.51;52.51
56518;BME280;42419;48.760;2.322;2022-07-23T09:47:09;101259.03;;;24.36;52.41
56518;BME280;42419;48.760;2.322;2022-07-23T09:49:34;101276.47;;;24.46;52.44
56518;BME280;42419;48.760;2.322;2022-07-23T09:52:00;101280.91;;;24.47;52.34
56518;BME280;42419;48.760;2.322;2022-07-23T09:54:34;101281.59;;;24.52;53.02
56518;BME280;42419;48.760;2.322;2022-07-23T09:57:08;101289.59;;;24.53;52.22
56518;BME280;42419;48.760;2.322;2022-07-23T09:59:38;101267.66;;;24.42;52.27
56518;BME280;42419;48.760;2.322;2022-07-23T10:02:08;101291.25;;;24.56;51.91
56518;BME280;42419;48.760;2.322;2022-07-23T10:04:34;101290.38;;;24.55;52.06
56518;BME280;42419;48.760;2.322;2022-07-23T10:07:02;101266.66;;;24.45;52.21
56518;BME280;42419;48.760;2.322;2022-07-23T10:09:33;101286.97;;;24.52;52.38
56518;BME280;42419;48.760;2.322;2022-07-23T10:12:01;101280.69;;;24.51;51.99
56518;BME280;42419;48.760;2.322;2022-07-23T10:14:33;101276.38;;;24.47;52.19
56518;BME280;42419;48.760;2.322;2022-07-23T10:17:02;101279.69;;;24.54;52.14
56518;BME280;42419;48.760;2.322;2022-07-23T10:19:28;101270.13;;;24.47;52.63
56518;BME280;42419;48.760;2.322;2022-07-23T10:22:02;101288.63;;;24.54;52.71
56518;BME280;42419;48.760;2.322;2022-07-23T10:24:44;101253.56;;;24.37;52.57
56518;BME280;42419;48.760;2.322;2022-07-23T10:36:00;101278.66;;;24.56;52.20
56518;BME280;42419;48.760;2.322;2022-07-23T10:39:05;101279.53;;;24.57;51.62
56518;BME280;42419;48.760;2.322;2022-07-23T10:41:38;101257.06;;;24.39;52.10
56518;BME280;42419;48.760;2.322;2022-07-23T10:44:15;101280.78;;;24.50;51.91
56518;BME280;42419;48.760;2.322;2022-07-23T10:47:04;101283.41;;;24.51;52.21
56518;BME280;42419;48.760;2.322;2022-07-23T10:50:30;101291.41;;;24.53;51.95
56518;BME280;42419;48.760;2.322;2022-07-23T10:57:56;101285.69;;;24.59;51.78
56518;BME280;42419;48.760;2.322;2022-07-23T11:00:25;101301.50;;;24.67;52.31
56518;BME280;42419;48.760;2.322;2022-07-23T11:02:53;101293.66;;;24.62;52.11
56518;BME280;42419;48.760;2.322;2022-07-23T11:05:21;101285.78;;;24.57;51.74
56518;BME280;42419;48.760;2.322;2022-07-23T11:10:44;101314.63;;;24.73;52.06
56518;BME280;42419;48.760;2.322;2022-07-23T11:26:55;101321.16;;;24.86;52.03
56518;BME280;42419;48.760;2.322;2022-07-23T11:32:27;101315.75;;;24.86;51.83
56518;BME280;42419;48.760;2.322;2022-07-23T11:34:53;101300.81;;;24.80;51.88
56518;BME280;42419;48.760;2.322;2022-07-23T11:37:35;101319.91;;;24.93;51.96
56518;BME280;42419;48.760;2.322;2022-07-23T11:40:08;101304.69;;;24.92;51.98
56518;BME280;42419;48.760;2.322;2022-07-23T11:42:35;101310.56;;;25.00;51.87
56518;BME280;42419;48.760;2.322;2022-07-23T11:45:01;101284.25;;;24.88;51.58
56518;BME280;42419;48.760;2.322;2022-07-23T11:47:27;101292.72;;;24.97;51.69
56518;BME280;42419;48.760;2.322;2022-07-23T11:49:54;101309.19;;;25.09;51.85
56518;BME280;42419;48.760;2.322;2022-07-23T11:52:20;101306.25;;;25.15;51.87
56518;BME280;42419;48.760;2.322;2022-07-23T11:55:13;101312.25;;;25.20;52.04
56518;BME280;42419;48.760;2.322;2022-07-23T11:57:41;101291.97;;;25.13;52.34
56518;BME280;42419;48.760;2.322;2022-07-23T12:00:14;101306.63;;;25.24;51.98
56518;BME280;42419;48.760;2.322;2022-07-23T12:02:48;101305.81;;;25.22;52.19
56518;BME280;42419;48.760;2.322;2022-07-23T12:05:16;101302.81;;;25.28;52.42
56518;BME280;42419;48.760;2.322;2022-07-23T12:07:46;101298.13;;;25.32;51.94
56518;BME280;42419;48.760;2.322;2022-07-23T12:10:20;101282.13;;;25.29;51.88
56518;BME280;42419;48.760;2.322;2022-07-23T12:12:51;101295.03;;;25.39;51.74
56518;BME280;42419;48.760;2.322;2022-07-23T12:15:20;101291.38;;;25.40;52.07
56518;BME280;42419;48.760;2.322;2022-07-23T12:17:48;101266.91;;;25.28;52.13
56518;BME280;42419;48.760;2.322;2022-07-23T12:20:16;101270.22;;;25.33;52.05
56518;BME280;42419;48.760;2.322;2022-07-23T12:22:44;101275.31;;;25.39;51.66
56518;BME280;42419;48.760;2.322;2022-07-23T12:25:14;101294.41;;;25.52;51.78
56518;BME280;42419;48.760;2.322;2022-07-23T12:27:41;101297.16;;;25.50;51.34
56518;BME280;42419;48.760;2.322;2022-07-23T12:33:04;101258.34;;;25.37;51.36
56518;BME280;42419;48.760;2.322;2022-07-23T12:35:41;101267.75;;;25.45;51.01
56518;BME280;42419;48.760;2.322;2022-07-23T12:38:12;101238.19;;;25.27;51.00
56518;BME280;42419;48.760;2.322;2022-07-23T12:40:46;101287.88;;;25.56;50.87
56518;BME280;42419;48.760;2.322;2022-07-23T12:43:42;101230.28;;;25.24;51.13
56518;BME280;42419;48.760;2.322;2022-07-23T12:46:17;101284.31;;;25.55;50.82
56518;BME280;42419;48.760;2.322;2022-07-23T12:53:47;101276.16;;;25.57;50.89
56518;BME280;42419;48.760;2.322;2022-07-23T13:01:07;101268.75;;;25.60;50.82
56518;BME280;42419;48.760;2.322;2022-07-23T13:03:35;101245.06;;;25.49;50.74
56518;BME280;42419;48.760;2.322;2022-07-23T13:06:03;101266.75;;;25.64;50.56
56518;BME280;42419;48.760;2.322;2022-07-23T13:08:30;101269.44;;;25.64;49.94
56518;BME280;42419;48.760;2.322;2022-07-23T13:10:57;101262.16;;;25.66;49.87
56518;BME280;42419;48.760;2.322;2022-07-23T13:13:24;101260.31;;;25.66;49.88
56518;BME280;42419;48.760;2.322;2022-07-23T13:15:50;101268.19;;;25.71;50.18
56518;BME280;42419;48.760;2.322;2022-07-23T13:18:16;101269.94;;;25.72;50.21
56518;BME280;42419;48.760;2.322;2022-07-23T13:20:43;101249.53;;;25.66;49.94
56518;BME280;42419;48.760;2.322;2022-07-23T13:23:08;101260.16;;;25.69;49.65
56518;BME280;42419;48.760;2.322;2022-07-23T13:25:33;101259.84;;;25.75;49.86
56518;BME280;42419;48.760;2.322;2022-07-23T13:27:59;101243.09;;;25.69;49.52
56518;BME280;42419;48.760;2.322;2022-07-23T13:30:25;101220.28;;;25.59;49.53
56518;BME280;42419;48.760;2.322;2022-07-23T13:32:50;101259.69;;;25.78;49.23
56518;BME280;42419;48.760;2.322;2022-07-23T13:35:16;101264.09;;;25.79;49.67
56518;BME280;42419;48.760;2.322;2022-07-23T13:37:41;101263.16;;;25.80;49.04
56518;BME280;42419;48.760;2.322;2022-07-23T13:40:07;101275.69;;;25.81;49.22
56518;BME280;42419;48.760;2.322;2022-07-23T13:42:33;101259.69;;;25.78;49.31